Time;durP1;ratioP1;P1;durP2;ratioP2;P2;SDS_P1;SDS_P2;PMS_P1;PMS_P2;Temp;Humidity;BMP_temperature;BMP_pressure;BME280_temperature;BME280_humidity;BME280_pressure;Samples;Min_cycle;Max_cycle;Signal;HPM_P1;HPM_P2
2023/05/15 00:00:59;;;;;;;10.73;9.50;;;;;20.60;100264.00;;;;2071920;28;20294;-53
2023/05/15 00:02:00;;;;;;;11.47;9.97;;;;;20.60;100262.00;;;;2075498;28;20232;-51
2023/05/15 00:03:01;;;;;;;9.70;8.80;;;;;20.60;100270.00;;;;2076923;28;20226;-51
2023/05/15 00:04:01;;;;;;;10.50;9.43;;;;;20.70;100266.00;;;;2082789;28;20555;-51
2023/05/15 00:05:01;;;;;;;10.03;9.03;;;;;20.70;100262.00;;;;2079075;28;20221;-51
2023/05/15 00:06:02;;;;;;;9.87;8.53;;;;;20.70;100265.00;;;;2077076;28;20240;-51
2023/05/15 00:07:02;;;;;;;10.77;9.80;;;;;20.70;100261.00;;;;2073324;28;20232;-51
2023/05/15 00:08:03;;;;;;;11.53;9.77;;;;;20.70;100268.00;;;;2073171;28;20225;-51
2023/05/15 00:09:03;;;;;;;10.53;9.23;;;;;20.80;100266.00;;;;2073248;28;20325;-51
2023/05/15 00:10:04;;;;;;;11.43;9.90;;;;;20.80;100286.00;;;;2075677;28;20834;-51
2023/05/15 00:11:04;;;;;;;10.70;9.70;;;;;20.80;100269.00;;;;2076569;28;20638;-51
2023/05/15 00:12:05;;;;;;;9.73;8.80;;;;;20.80;100260.00;;;;2069326;28;20476;-52
2023/05/15 00:13:05;;;;;;;12.07;9.07;;;;;20.80;100266.00;;;;2085562;28;20271;-52
2023/05/15 00:14:05;;;;;;;11.20;10.10;;;;;20.80;100268.00;;;;2083606;28;20252;-51
2023/05/15 00:15:06;;;;;;;11.27;9.93;;;;;20.80;100258.00;;;;2077422;28;20217;-51
2023/05/15 00:16:07;;;;;;;11.03;9.87;;;;;20.90;100270.00;;;;2069712;28;20229;-51
2023/05/15 00:17:07;;;;;;;11.90;10.73;;;;;20.80;100262.00;;;;2065861;28;20472;-51
2023/05/15 00:18:07;;;;;;;12.07;10.87;;;;;20.90;100262.00;;;;2068922;28;20221;-52
2023/05/15 00:19:08;;;;;;;15.77;11.30;;;;;20.90;100273.00;;;;2074882;28;20653;-52
2023/05/15 00:20:09;;;;;;;12.90;11.70;;;;;20.90;100268.00;;;;2071449;28;20210;-51
2023/05/15 00:21:09;;;;;;;13.77;12.48;;;;;20.90;100264.00;;;;2075896;28;20263;-51
2023/05/15 00:22:09;;;;;;;13.80;12.47;;;;;20.90;100266.00;;;;2068011;28;20489;-51
2023/05/15 00:23:10;;;;;;;16.53;14.37;;;;;20.90;100258.00;;;;2077335;28;20232;-52
2023/05/15 00:24:10;;;;;;;14.27;12.87;;;;;20.90;100265.00;;;;2077835;28;20209;-51
2023/05/15 00:25:10;;;;;;;18.87;16.90;;;;;20.90;100260.00;;;;2084041;28;20237;-51
2023/05/15 00:26:14;;;;;;;21.47;18.37;;;;;20.90;100266.00;;;;2082130;28;20213;-51
2023/05/15 00:27:14;;;;;;;24.38;20.15;;;;;20.90;100257.00;;;;2069520;28;20564;-51
2023/05/15 00:28:15;;;;;;;22.80;17.93;;;;;20.90;100258.00;;;;2083133;28;20224;-51
2023/05/15 00:29:15;;;;;;;22.83;20.30;;;;;20.90;100261.00;;;;2077384;28;20300;-51
2023/05/15 00:30:15;;;;;;;29.57;23.33;;;;;20.90;100260.00;;;;2078391;28;20224;-52
2023/05/15 00:31:16;;;;;;;22.47;20.07;;;;;20.90;100262.00;;;;2081589;28;20214;-52
2023/05/15 00:32:16;;;;;;;35.83;29.13;;;;;20.90;100262.00;;;;2066399;28;20271;-52
2023/05/15 00:33:16;;;;;;;34.13;26.97;;;;;20.90;100252.00;;;;2071269;28;20209;-51
2023/05/15 00:34:17;;;;;;;31.10;26.93;;;;;20.90;100261.00;;;;2075528;28;20308;-51
2023/05/15 00:35:17;;;;;;;38.43;31.87;;;;;20.90;100251.00;;;;2077355;28;20684;-51
2023/05/15 00:36:20;;;;;;;40.53;30.97;;;;;20.90;100254.00;;;;2077379;28;20588;-51
2023/05/15 00:37:20;;;;;;;37.63;30.67;;;;;20.90;100255.00;;;;2068176;28;20218;-51
2023/05/15 00:38:21;;;;;;;45.70;35.57;;;;;20.90;100250.00;;;;2073525;28;20217;-51
2023/05/15 00:39:21;;;;;;;43.27;34.07;;;;;20.90;100249.00;;;;2070675;28;20246;-52
2023/05/15 00:40:22;;;;;;;43.53;35.63;;;;;20.90;100246.00;;;;2075323;28;20286;-51
2023/05/15 00:41:23;;;;;;;40.90;34.05;;;;;20.90;100245.00;;;;2077593;28;20701;-51
2023/05/15 00:42:23;;;;;;;40.90;32.30;;;;;20.90;100273.00;;;;2064508;28;20356;-51
2023/05/15 00:43:24;;;;;;;43.43;34.43;;;;;20.90;100227.00;;;;2075260;28;20775;-51
2023/05/15 00:44:25;;;;;;;46.50;35.08;;;;;20.90;100238.00;;;;2078383;28;20695;-56
2023/05/15 00:45:25;;;;;;;48.93;39.47;;;;;20.90;100247.00;;;;2084208;28;20208;-55
2023/05/15 00:46:26;;;;;;;52.77;41.43;;;;;20.90;100237.00;;;;2073984;28;20210;-50
2023/05/15 00:47:26;;;;;;;48.00;38.17;;;;;20.90;100242.00;;;;2062442;28;20252;-52
2023/05/15 00:48:27;;;;;;;52.47;39.97;;;;;20.90;100225.00;;;;2075263;28;20448;-51
2023/05/15 00:49:28;;;;;;;53.37;39.87;;;;;20.90;100231.00;;;;2075910;28;20275;-52
2023/05/15 00:50:28;;;;;;;44.78;36.85;;;;;20.90;100242.00;;;;2079020;28;20337;-51
2023/05/15 00:51:29;;;;;;;46.33;38.30;;;;;20.80;100236.00;;;;2081881;28;20216;-52
2023/05/15 00:52:29;;;;;;;49.40;39.40;;;;;20.90;100234.00;;;;2068919;28;20721;-51
2023/05/15 00:53:30;;;;;;;48.10;39.20;;;;;20.90;100243.00;;;;2075806;28;20213;-51
2023/05/15 00:54:30;;;;;;;45.03;37.77;;;;;20.90;100241.00;;;;2079319;28;20229;-51
2023/05/15 00:55:30;;;;;;;45.97;38.73;;;;;20.80;100235.00;;;;2077697;28;20710;-51
2023/05/15 00:56:31;;;;;;;44.90;36.37;;;;;20.80;100239.00;;;;2068834;28;20762;-51
2023/05/15 00:57:31;;;;;;;52.20;40.70;;;;;20.80;100231.00;;;;2057443;28;21127;-51
2023/05/15 00:58:31;;;;;;;48.20;38.33;;;;;20.80;100231.00;;;;2080874;28;20705;-51
2023/05/15 00:59:32;;;;;;;48.10;38.37;;;;;20.80;100239.00;;;;2059864;28;21034;-52
2023/05/15 01:00:32;;;;;;;46.67;37.60;;;;;20.80;100237.00;;;;2060202;28;20797;-51
2023/05/15 01:01:33;;;;;;;45.17;35.67;;;;;20.80;100235.00;;;;2071793;28;20210;-51
2023/05/15 01:02:33;;;;;;;45.88;36.78;;;;;20.80;100239.00;;;;2070277;28;20221;-52
2023/05/15 01:03:34;;;;;;;41.70;35.23;;;;;20.80;100249.00;;;;2093028;28;20211;-52
2023/05/15 01:04:34;;;;;;;45.40;37.50;;;;;20.80;100234.00;;;;2073104;28;20750;-51
2023/05/15 01:05:35;;;;;;;45.53;35.10;;;;;20.80;100232.00;;;;2073567;28;20214;-51
2023/05/15 01:06:36;;;;;;;41.80;35.00;;;;;20.80;100231.00;;;;2075557;28;20232;-51
2023/05/15 01:07:40;;;;;;;44.43;34.07;;;;;20.80;100230.00;;;;2063154;28;20457;-52
2023/05/15 01:08:45;;;;;;;41.58;33.42;;;;;20.80;100232.00;;;;2068941;28;20264;-50
2023/05/15 01:09:45;;;;;;;39.05;33.20;;;;;20.80;100224.00;;;;2073430;28;20229;-51
2023/05/15 01:10:46;;;;;;;42.83;33.77;;;;;20.80;100232.00;;;;2073282;28;20653;-51
2023/05/15 01:11:47;;;;;;;39.33;32.40;;;;;20.80;100231.00;;;;2059701;28;20218;-52
2023/05/15 01:12:47;;;;;;;40.70;32.73;;;;;20.80;100232.00;;;;2076626;28;20732;-51
2023/05/15 01:13:47;;;;;;;38.97;32.37;;;;;20.80;100231.00;;;;2078212;28;20796;-51
2023/05/15 01:14:48;;;;;;;37.80;29.27;;;;;20.80;100232.00;;;;2090964;28;20589;-51
2023/05/15 01:15:48;;;;;;;41.93;33.97;;;;;20.80;100233.00;;;;2076728;28;20217;-51
2023/05/15 01:16:49;;;;;;;39.13;32.00;;;;;20.80;100225.00;;;;2062159;28;20218;-51
2023/05/15 01:17:49;;;;;;;37.17;30.57;;;;;20.80;100234.00;;;;2069209;28;20622;-51
2023/05/15 01:18:50;;;;;;;38.60;30.87;;;;;20.80;100222.00;;;;2074581;28;20224;-52
2023/05/15 01:19:51;;;;;;;37.00;30.30;;;;;20.80;100232.00;;;;2083331;28;20234;-51
2023/05/15 01:21:04;;;;;;;35.53;29.33;;;;;20.80;100225.00;;;;2079790;28;20213;-52
2023/05/15 01:22:18;;;;;;;35.50;29.35;;;;;20.80;100223.00;;;;2066836;28;20581;-51
2023/05/15 01:23:28;;;;;;;33.17;28.10;;;;;20.80;100222.00;;;;2081405;28;20205;-52
2023/05/15 01:24:36;;;;;;;35.20;28.55;;;;;20.80;100220.00;;;;2081473;28;20634;-51
2023/05/15 01:25:52;;;;;;;35.33;27.70;;;;;20.80;100226.00;;;;2077359;28;20205;-51
2023/05/15 01:27:20;;;;;;;33.35;27.25;;;;;20.80;100229.00;;;;2058602;28;20222;-51
2023/05/15 01:28:22;;;;;;;34.47;27.67;;;;;20.80;100224.00;;;;2076502;28;20292;-51
2023/05/15 01:29:41;;;;;;;33.28;26.38;;;;;20.80;100235.00;;;;2082012;28;20240;-51
2023/05/15 01:30:42;;;;;;;33.40;25.60;;;;;20.80;100225.00;;;;2072156;28;20228;-52
2023/05/15 01:31:43;;;;;;;32.05;26.27;;;;;20.80;100226.00;;;;2065868;28;20626;-51
2023/05/15 01:32:56;;;;;;;28.37;23.40;;;;;20.80;100150.00;;;;2065842;28;20207;-52
2023/05/15 01:33:58;;;;;;;35.13;25.60;;;;;20.80;100221.00;;;;2061748;28;20560;-51
2023/05/15 01:35:09;;;;;;;27.20;22.80;;;;;20.80;100230.00;;;;2066473;28;20222;-51
2023/05/15 01:36:22;;;;;;;28.80;24.25;;;;;20.80;100229.00;;;;2076088;28;20213;-51
2023/05/15 01:37:24;;;;;;;26.92;22.58;;;;;20.80;100229.00;;;;2060410;28;20214;-51
2023/05/15 01:38:43;;;;;;;32.13;23.80;;;;;20.80;100231.00;;;;2076271;28;20213;-51
2023/05/15 01:39:44;;;;;;;26.75;22.13;;;;;20.80;100215.00;;;;2075119;28;20693;-52
2023/05/15 01:40:45;;;;;;;25.90;22.53;;;;;20.80;100223.00;;;;2067628;28;20289;-51
2023/05/15 01:41:54;;;;;;;26.23;21.00;;;;;20.80;100237.00;;;;2050206;28;20230;-52
2023/05/15 01:42:55;;;;;;;26.92;21.70;;;;;20.80;100227.00;;;;2057807;28;20969;-51
2023/05/15 01:44:16;;;;;;;23.93;21.17;;;;;20.80;100222.00;;;;2058991;28;20211;-51
2023/05/15 01:45:16;;;;;;;24.05;21.38;;;;;20.80;100225.00;;;;2068267;28;20214;-51
2023/05/15 01:46:18;;;;;;;23.37;20.47;;;;;20.80;100221.00;;;;2072693;28;20612;-51
2023/05/15 01:47:20;;;;;;;25.27;20.67;;;;;20.80;100219.00;;;;2064176;28;20220;-51
2023/05/15 01:48:21;;;;;;;23.95;19.90;;;;;20.80;100211.00;;;;2074556;28;20705;-51
2023/05/15 01:49:23;;;;;;;24.47;20.40;;;;;20.80;100206.00;;;;2070219;28;20221;-51
2023/05/15 01:50:23;;;;;;;25.50;21.60;;;;;20.80;100223.00;;;;2067918;28;20737;-51
2023/05/15 01:51:24;;;;;;;22.20;19.27;;;;;20.80;100211.00;;;;2057674;28;20314;-52
2023/05/15 01:52:33;;;;;;;22.50;19.57;;;;;20.80;100208.00;;;;2042575;28;20274;-51
2023/05/15 01:53:33;;;;;;;22.73;19.35;;;;;20.80;100217.00;;;;2060174;28;20214;-51
2023/05/15 01:54:33;;;;;;;21.13;18.80;;;;;20.80;100217.00;;;;2061007;28;20695;-51
2023/05/15 01:55:34;;;;;;;23.77;19.30;;;;;20.80;100203.00;;;;2072237;28;20264;-51
2023/05/15 01:56:34;;;;;;;24.30;19.10;;;;;20.80;100210.00;;;;2067582;28;20211;-51
2023/05/15 01:57:35;;;;;;;21.37;18.30;;;;;20.80;100210.00;;;;2045932;28;20207;-52
2023/05/15 01:58:36;;;;;;;19.70;17.60;;;;;20.80;100212.00;;;;2064818;28;20210;-51
2023/05/15 01:59:36;;;;;;;21.08;18.33;;;;;20.80;100214.00;;;;2064276;28;20352;-51
2023/05/15 02:00:37;;;;;;;19.93;17.83;;;;;20.80;100214.00;;;;2072599;28;20202;-50
2023/05/15 02:01:37;;;;;;;22.43;18.40;;;;;20.80;100208.00;;;;2081083;28;20209;-50
2023/05/15 02:02:37;;;;;;;19.30;17.20;;;;;20.80;100203.00;;;;2063278;28;20212;-51
2023/05/15 02:03:38;;;;;;;18.87;16.87;;;;;20.80;100201.00;;;;2074666;28;20270;-52
2023/05/15 02:04:38;;;;;;;20.23;17.37;;;;;20.80;100201.00;;;;2077540;28;20292;-51
2023/05/15 02:05:38;;;;;;;19.33;16.23;;;;;20.80;100197.00;;;;2081478;28;20560;-52
2023/05/15 02:06:39;;;;;;;17.80;15.90;;;;;20.80;100202.00;;;;2062981;28;20267;-51
2023/05/15 02:07:42;;;;;;;19.63;16.47;;;;;20.80;100211.00;;;;2079127;28;20193;-51
2023/05/15 02:08:43;;;;;;;19.90;16.63;;;;;20.80;100217.00;;;;2070319;28;20202;-51
2023/05/15 02:09:43;;;;;;;18.97;16.97;;;;;20.80;100203.00;;;;2068114;28;20757;-51
2023/05/15 02:10:43;;;;;;;19.73;15.80;;;;;20.80;100208.00;;;;2075907;28;20720;-51
2023/05/15 02:11:44;;;;;;;17.00;14.43;;;;;20.80;100214.00;;;;2052835;28;20211;-52
2023/05/15 02:12:44;;;;;;;17.40;14.77;;;;;20.80;100206.00;;;;2060068;28;20262;-51
2023/05/15 02:13:45;;;;;;;16.80;15.20;;;;;20.80;100209.00;;;;2057045;28;20224;-51
2023/05/15 02:14:45;;;;;;;17.90;15.50;;;;;20.80;100212.00;;;;2057543;28;20285;-51
2023/05/15 02:15:46;;;;;;;17.40;15.30;;;;;20.80;100214.00;;;;2059491;28;20308;-51
2023/05/15 02:16:46;;;;;;;16.70;14.87;;;;;20.80;100207.00;;;;2058307;28;20968;-51
2023/05/15 02:17:46;;;;;;;16.90;13.90;;;;;20.80;100204.00;;;;2076911;28;20236;-51
2023/05/15 02:18:47;;;;;;;17.17;14.83;;;;;20.80;100201.00;;;;2075169;28;20210;-51
2023/05/15 02:19:47;;;;;;;16.73;14.40;;;;;20.80;100206.00;;;;2076060;28;20224;-51
2023/05/15 02:20:48;;;;;;;16.37;14.60;;;;;20.80;100205.00;;;;2075108;28;20292;-51
2023/05/15 02:21:48;;;;;;;18.37;15.43;;;;;20.80;100212.00;;;;2067537;28;20225;-51
2023/05/15 02:22:48;;;;;;;14.80;13.03;;;;;20.80;100203.00;;;;2076658;28;20213;-51
2023/05/15 02:23:49;;;;;;;16.33;14.50;;;;;20.80;100204.00;;;;2076149;28;20245;-51
2023/05/15 02:24:49;;;;;;;16.87;15.07;;;;;20.80;100203.00;;;;2077152;28;20217;-51
2023/05/15 02:26:09;;;;;;;14.90;13.18;;;;;20.80;100212.00;;;;2070636;28;20234;-51
2023/05/15 02:27:45;;;;;;;15.35;13.75;;;;;20.70;100210.00;;;;2067003;28;20731;-51
2023/05/15 02:29:07;;;;;;;16.15;13.80;;;;;20.80;100214.00;;;;2064702;28;20261;-51
2023/05/15 02:30:10;;;;;;;14.75;13.25;;;;;20.70;100215.00;;;;2068796;28;20262;-51
2023/05/15 02:31:18;;;;;;;17.20;14.25;;;;;20.80;100218.00;;;;2068892;28;20584;-51
2023/05/15 02:32:45;;;;;;;14.45;13.02;;;;;20.80;100224.00;;;;2068612;28;20662;-51
2023/05/15 02:34:01;;;;;;;16.73;13.93;;;;;20.80;100220.00;;;;2079837;28;20221;-51
2023/05/15 02:35:18;;;;;;;14.90;13.40;;;;;20.80;100226.00;;;;2075541;28;20229;-51
2023/05/15 02:36:24;;;;;;;13.93;12.45;;;;;20.80;100225.00;;;;2076070;28;20306;-51
2023/05/15 02:37:27;;;;;;;14.40;12.88;;;;;20.80;100221.00;;;;2062087;28;20582;-51
2023/05/15 02:38:29;;;;;;;14.82;13.23;;;;;20.80;100224.00;;;;2074761;28;20213;-54
2023/05/15 02:39:29;;;;;;;13.32;12.02;;;;;20.80;100217.00;;;;2079145;28;20258;-51
2023/05/15 02:40:29;;;;;;;14.47;13.00;;;;;20.80;100225.00;;;;2083463;28;20208;-51
2023/05/15 02:41:30;;;;;;;13.80;12.50;;;;;20.80;100226.00;;;;2072628;28;20214;-51
2023/05/15 02:42:30;;;;;;;14.20;12.20;;;;;20.80;100228.00;;;;2053392;28;20249;-50
2023/05/15 02:43:30;;;;;;;13.67;12.27;;;;;20.80;100223.00;;;;2067020;28;20268;-51
2023/05/15 02:44:31;;;;;;;13.77;12.37;;;;;20.80;100219.00;;;;2059561;28;20210;-50
2023/05/15 02:45:31;;;;;;;14.97;13.23;;;;;20.80;100231.00;;;;2056900;28;20353;-52
2023/05/15 02:46:31;;;;;;;14.30;12.83;;;;;20.80;100227.00;;;;2077680;28;20220;-51
2023/05/15 02:47:32;;;;;;;15.30;13.50;;;;;20.80;100205.00;;;;2072377;28;20213;-52
2023/05/15 02:48:37;;;;;;;14.40;12.90;;;;;20.80;100243.00;;;;2079738;28;20335;-51
2023/05/15 02:49:38;;;;;;;13.57;12.18;;;;;20.70;100238.00;;;;2074167;28;20214;-51
2023/05/15 02:50:38;;;;;;;16.17;13.02;;;;;20.70;100241.00;;;;2063505;28;20214;-51
2023/05/15 02:51:38;;;;;;;14.80;13.23;;;;;20.80;100242.00;;;;2069474;28;20687;-55
2023/05/15 02:52:39;;;;;;;15.30;13.67;;;;;20.70;100256.00;;;;2055219;28;20229;-52
2023/05/15 02:53:40;;;;;;;15.20;13.60;;;;;20.70;100227.00;;;;2068012;28;20750;-52
2023/05/15 02:54:40;;;;;;;14.50;12.93;;;;;20.80;100231.00;;;;2076802;28;20990;-51
2023/05/15 02:55:41;;;;;;;16.00;13.90;;;;;20.70;100231.00;;;;2075783;28;20810;-51
2023/05/15 02:56:41;;;;;;;15.97;14.27;;;;;20.70;100238.00;;;;2067286;28;20225;-51
2023/05/15 02:57:41;;;;;;;15.40;13.30;;;;;20.70;100231.00;;;;2076691;28;20217;-51
2023/05/15 02:58:42;;;;;;;16.80;14.27;;;;;20.70;100250.00;;;;2076724;28;20237;-51
2023/05/15 02:59:42;;;;;;;16.13;14.13;;;;;20.60;100230.00;;;;2073865;28;20340;-52
2023/05/15 03:00:43;;;;;;;18.37;15.40;;;;;20.70;100234.00;;;;2073687;28;20210;-52
2023/05/15 03:01:43;;;;;;;15.20;13.60;;;;;20.70;100231.00;;;;2067079;28;20210;-52
2023/05/15 03:02:43;;;;;;;17.30;13.90;;;;;20.70;100226.00;;;;2070851;28;20266;-51
2023/05/15 03:03:44;;;;;;;17.83;15.30;;;;;20.70;100230.00;;;;2073991;28;20209;-51
2023/05/15 03:04:44;;;;;;;17.07;15.13;;;;;20.70;100222.00;;;;2075889;28;20270;-51
2023/05/15 03:05:45;;;;;;;18.27;15.43;;;;;20.70;100223.00;;;;2076752;28;20205;-52
2023/05/15 03:06:45;;;;;;;17.33;15.20;;;;;20.70;100224.00;;;;2069821;28;20296;-52
2023/05/15 03:07:45;;;;;;;17.53;15.70;;;;;20.70;100221.00;;;;2082256;28;20689;-52
2023/05/15 03:08:46;;;;;;;18.17;15.57;;;;;20.80;100231.00;;;;2082647;28;20696;-52
2023/05/15 03:09:46;;;;;;;17.63;15.33;;;;;20.70;100231.00;;;;2081357;28;20385;-51
2023/05/15 03:10:46;;;;;;;19.57;17.00;;;;;20.70;100228.00;;;;2073377;28;20309;-52
2023/05/15 03:11:47;;;;;;;19.63;16.40;;;;;20.80;100224.00;;;;2065349;28;20229;-51
2023/05/15 03:12:47;;;;;;;18.10;15.20;;;;;20.70;100221.00;;;;2082359;28;20227;-52
2023/05/15 03:13:47;;;;;;;18.90;16.10;;;;;20.70;100225.00;;;;2080734;28;20597;-52
2023/05/15 03:14:48;;;;;;;19.67;17.60;;;;;20.80;100223.00;;;;2082822;28;20589;-52
2023/05/15 03:15:48;;;;;;;19.50;15.80;;;;;20.70;100226.00;;;;2084065;28;20637;-51
2023/05/15 03:16:48;;;;;;;19.57;17.20;;;;;20.70;100224.00;;;;2068451;28;20217;-51
2023/05/15 03:17:49;;;;;;;20.17;16.60;;;;;20.80;100226.00;;;;2084384;28;20225;-51
2023/05/15 03:18:49;;;;;;;19.03;17.07;;;;;20.70;100221.00;;;;2080435;28;21017;-52
2023/05/15 03:19:49;;;;;;;20.27;17.13;;;;;20.70;100225.00;;;;2078296;28;20834;-51
2023/05/15 03:20:51;;;;;;;19.87;17.73;;;;;20.50;100222.00;;;;2071301;28;20900;-51
2023/05/15 03:21:51;;;;;;;19.85;17.33;;;;;20.80;100215.00;;;;2068942;28;20217;-51
2023/05/15 03:22:52;;;;;;;21.07;17.10;;;;;20.70;100221.00;;;;2077992;28;20221;-51
2023/05/15 03:23:52;;;;;;;21.23;17.93;;;;;20.70;100218.00;;;;2077111;28;20221;-51
2023/05/15 03:24:52;;;;;;;22.60;19.00;;;;;20.70;100222.00;;;;2073534;28;20221;-51
2023/05/15 03:25:53;;;;;;;21.93;17.10;;;;;20.70;100222.00;;;;2074550;28;20217;-51
2023/05/15 03:26:53;;;;;;;21.30;18.30;;;;;20.70;100221.00;;;;2068778;28;20248;-51
2023/05/15 03:27:53;;;;;;;22.53;18.87;;;;;20.70;100226.00;;;;2071535;28;20226;-51
2023/05/15 03:28:54;;;;;;;20.10;17.73;;;;;20.70;100227.00;;;;2077656;28;20224;-52
2023/05/15 03:29:54;;;;;;;21.33;18.00;;;;;20.70;100225.00;;;;2082210;28;20300;-51
2023/05/15 03:30:54;;;;;;;21.40;19.07;;;;;20.70;100231.00;;;;2077786;28;20217;-52
2023/05/15 03:31:55;;;;;;;21.77;18.80;;;;;20.70;100229.00;;;;2068825;28;20213;-51
2023/05/15 03:32:56;;;;;;;23.60;19.37;;;;;20.70;100228.00;;;;2077447;28;20275;-51
2023/05/15 03:33:56;;;;;;;21.00;18.23;;;;;20.70;100224.00;;;;2071235;28;20229;-52
2023/05/15 03:34:57;;;;;;;22.50;18.13;;;;;20.70;100227.00;;;;2077072;28;20256;-51
2023/05/15 03:35:57;;;;;;;21.43;17.70;;;;;20.70;100225.00;;;;2077402;28;20217;-52
2023/05/15 03:36:57;;;;;;;21.27;18.60;;;;;20.70;100221.00;;;;2067448;28;20496;-57
2023/05/15 03:37:58;;;;;;;20.17;17.63;;;;;20.70;100226.00;;;;2074662;28;20304;-51
2023/05/15 03:38:58;;;;;;;20.43;17.60;;;;;20.70;100228.00;;;;2070857;28;20228;-51
2023/05/15 03:39:58;;;;;;;20.60;18.17;;;;;20.70;100226.00;;;;2075967;28;20573;-51
2023/05/15 03:40:59;;;;;;;21.30;17.40;;;;;20.70;100237.00;;;;2077385;28;20217;-51
2023/05/15 03:41:59;;;;;;;22.40;19.17;;;;;20.70;100241.00;;;;2061552;28;20218;-52
2023/05/15 03:42:59;;;;;;;23.67;20.13;;;;;20.70;100244.00;;;;2076043;28;20217;-52
2023/05/15 03:44:00;;;;;;;21.87;18.87;;;;;20.70;100237.00;;;;2078182;28;20221;-51
2023/05/15 03:45:00;;;;;;;22.17;19.00;;;;;20.70;100236.00;;;;2077196;28;20577;-50
2023/05/15 03:46:00;;;;;;;20.83;17.70;;;;;20.70;100242.00;;;;2072524;28;20222;-51
2023/05/15 03:47:01;;;;;;;20.77;17.60;;;;;20.70;100238.00;;;;2061235;28;20234;-52
2023/05/15 03:48:01;;;;;;;21.43;18.00;;;;;20.70;100238.00;;;;2076486;28;20974;-51
2023/05/15 03:49:02;;;;;;;22.20;17.90;;;;;20.70;100227.00;;;;2077878;28;20231;-51
2023/05/15 03:50:02;;;;;;;20.47;17.97;;;;;20.70;100185.00;;;;2077306;28;20218;-51
2023/05/15 03:51:02;;;;;;;23.60;19.90;;;;;20.70;100233.00;;;;2077535;28;20222;-51
2023/05/15 03:52:03;;;;;;;20.97;18.03;;;;;20.70;100233.00;;;;2062339;28;20230;-52
2023/05/15 03:53:03;;;;;;;20.60;18.40;;;;;20.70;100233.00;;;;2076508;28;20229;-52
2023/05/15 03:54:04;;;;;;;21.87;18.40;;;;;20.70;100234.00;;;;2085096;28;20982;-51
2023/05/15 03:55:05;;;;;;;21.60;17.53;;;;;20.70;100241.00;;;;2085643;28;20601;-51
2023/05/15 03:56:05;;;;;;;21.63;17.80;;;;;20.70;100232.00;;;;2089344;28;20806;-52
2023/05/15 03:57:06;;;;;;;22.27;19.27;;;;;20.70;100238.00;;;;2063328;28;20311;-51
2023/05/15 03:58:06;;;;;;;20.83;17.33;;;;;20.70;100234.00;;;;2077933;28;20581;-50
2023/05/15 03:59:07;;;;;;;19.57;17.20;;;;;20.70;100227.00;;;;2083001;28;20789;-50
2023/05/15 04:00:11;;;;;;;22.40;18.40;;;;;20.70;100232.00;;;;2078538;28;20630;-51
2023/05/15 04:01:11;;;;;;;22.42;19.00;;;;;20.70;100234.00;;;;2080272;28;20241;-51
2023/05/15 04:02:11;;;;;;;20.03;17.17;;;;;20.70;100233.00;;;;2069404;28;20229;-52
2023/05/15 04:03:11;;;;;;;22.80;18.80;;;;;20.70;100235.00;;;;2086427;28;20224;-51
2023/05/15 04:04:12;;;;;;;20.40;16.87;;;;;20.70;100229.00;;;;2083331;28;20225;-52
2023/05/15 04:05:12;;;;;;;20.57;17.23;;;;;20.70;100229.00;;;;2085252;28;20209;-51
2023/05/15 04:06:13;;;;;;;20.67;17.10;;;;;20.70;100226.00;;;;2077423;28;20287;-51
2023/05/15 04:07:13;;;;;;;22.30;18.63;;;;;20.70;100251.00;;;;2067582;28;20283;-51
2023/05/15 04:08:13;;;;;;;22.30;18.30;;;;;20.70;100227.00;;;;2078156;28;21085;-51
2023/05/15 04:09:13;;;;;;;20.30;17.93;;;;;20.70;100222.00;;;;2075846;28;20697;-52
2023/05/15 04:10:14;;;;;;;24.50;19.03;;;;;20.70;100218.00;;;;2070586;28;20712;-51
2023/05/15 04:11:15;;;;;;;21.27;17.57;;;;;20.70;100223.00;;;;2077284;28;20725;-51
2023/05/15 04:12:15;;;;;;;19.30;16.83;;;;;20.70;100225.00;;;;2069573;28;20221;-52
2023/05/15 04:13:16;;;;;;;22.37;18.53;;;;;20.70;100224.00;;;;2084823;28;20447;-51
2023/05/15 04:14:16;;;;;;;22.17;17.90;;;;;20.70;100220.00;;;;2077427;28;20761;-51
2023/05/15 04:15:21;;;;;;;20.60;18.07;;;;;20.70;100225.00;;;;2079513;28;20316;-51
2023/05/15 04:16:21;;;;;;;22.10;18.63;;;;;20.70;100226.00;;;;2078655;28;20209;-51
2023/05/15 04:17:21;;;;;;;20.97;18.73;;;;;20.70;100222.00;;;;2064035;28;20221;-52
2023/05/15 04:18:22;;;;;;;24.03;18.60;;;;;20.70;100226.00;;;;2071682;28;20226;-51
2023/05/15 04:19:22;;;;;;;20.53;18.33;;;;;20.70;100227.00;;;;2074983;28;20276;-51
2023/05/15 04:20:23;;;;;;;20.70;17.33;;;;;20.70;100228.00;;;;2073005;28;20217;-51
2023/05/15 04:21:23;;;;;;;20.33;17.43;;;;;20.70;100228.00;;;;2074855;28;20309;-51
2023/05/15 04:22:24;;;;;;;21.33;17.40;;;;;20.70;100227.00;;;;2064835;28;20480;-52
2023/05/15 04:23:24;;;;;;;19.73;17.60;;;;;20.70;100231.00;;;;2071438;28;20219;-51
2023/05/15 04:24:24;;;;;;;20.30;17.77;;;;;20.70;100231.00;;;;2078145;28;20814;-52
2023/05/15 04:25:26;;;;;;;22.50;17.10;;;;;20.70;100229.00;;;;2076062;28;20225;-50
2023/05/15 04:26:26;;;;;;;21.35;17.63;;;;;20.70;100225.00;;;;2074219;28;20218;-51
2023/05/15 04:27:27;;;;;;;20.53;17.00;;;;;20.70;100229.00;;;;2068460;28;20205;-52
2023/05/15 04:28:27;;;;;;;22.10;18.77;;;;;20.70;100222.00;;;;2073694;28;20226;-52
2023/05/15 04:29:28;;;;;;;23.70;18.20;;;;;20.70;100232.00;;;;2071822;28;20292;-51
2023/05/15 04:30:28;;;;;;;18.87;16.30;;;;;20.70;100222.00;;;;2076482;28;20580;-55
2023/05/15 04:31:30;;;;;;;20.30;18.10;;;;;20.70;100221.00;;;;2077962;28;20206;-53
2023/05/15 04:32:32;;;;;;;20.13;17.80;;;;;20.70;100231.00;;;;2065786;28;20284;-51
2023/05/15 04:33:32;;;;;;;22.27;18.38;;;;;20.70;100229.00;;;;2071341;28;20210;-51
2023/05/15 04:34:33;;;;;;;19.13;17.13;;;;;20.70;100234.00;;;;2069401;28;20214;-52
2023/05/15 04:35:33;;;;;;;18.83;16.80;;;;;20.70;100236.00;;;;2077254;28;20202;-51
2023/05/15 04:36:33;;;;;;;19.70;16.77;;;;;20.70;100238.00;;;;2077758;28;20206;-51
2023/05/15 04:37:34;;;;;;;21.53;17.83;;;;;20.70;100232.00;;;;2066707;28;20205;-51
2023/05/15 04:38:35;;;;;;;20.43;17.50;;;;;20.70;100222.00;;;;2073582;28;20210;-51
2023/05/15 04:39:35;;;;;;;19.57;16.80;;;;;20.70;100230.00;;;;2073293;28;20448;-51
2023/05/15 04:40:35;;;;;;;18.90;16.60;;;;;20.70;100230.00;;;;2072551;28;20292;-51
2023/05/15 04:41:36;;;;;;;20.60;18.33;;;;;20.70;100234.00;;;;2069969;28;20206;-51
2023/05/15 04:42:36;;;;;;;20.30;17.30;;;;;20.70;100240.00;;;;2062736;28;20220;-51
2023/05/15 04:43:36;;;;;;;19.20;16.50;;;;;20.70;100229.00;;;;2077806;28;20801;-51
2023/05/15 04:44:37;;;;;;;19.33;17.30;;;;;20.70;100234.00;;;;2077343;28;20582;-51
2023/05/15 04:45:37;;;;;;;18.63;16.40;;;;;20.70;100235.00;;;;2082322;28;20668;-51
2023/05/15 04:46:38;;;;;;;20.13;17.90;;;;;20.70;100227.00;;;;2082832;28;20221;-51
2023/05/15 04:47:38;;;;;;;18.13;16.20;;;;;20.70;100227.00;;;;2069578;28;20205;-52
2023/05/15 04:48:39;;;;;;;18.93;16.53;;;;;20.70;100229.00;;;;2081824;28;20444;-52
2023/05/15 04:49:42;;;;;;;20.20;17.07;;;;;20.70;100222.00;;;;2079650;28;20213;-52
2023/05/15 04:50:43;;;;;;;18.73;16.73;;;;;20.70;100226.00;;;;2081571;28;20319;-51
2023/05/15 04:51:43;;;;;;;20.37;17.47;;;;;20.70;100229.00;;;;2070474;28;20205;-51
2023/05/15 04:52:44;;;;;;;20.13;16.50;;;;;20.70;100223.00;;;;2086520;28;20220;-52
2023/05/15 04:53:44;;;;;;;18.30;16.40;;;;;20.70;100226.00;;;;2089873;28;20227;-51
2023/05/15 04:54:46;;;;;;;18.87;16.83;;;;;20.70;100220.00;;;;2082843;28;20827;-51
2023/05/15 04:55:50;;;;;;;18.95;16.48;;;;;20.70;100225.00;;;;2081857;28;20692;-52
2023/05/15 04:56:50;;;;;;;17.88;16.05;;;;;20.70;100221.00;;;;2067014;28;20221;-51
2023/05/15 04:57:50;;;;;;;19.50;16.33;;;;;20.70;100224.00;;;;2071739;28;20241;-52
2023/05/15 04:58:51;;;;;;;18.50;16.53;;;;;20.70;100218.00;;;;2079489;28;20224;-52